createdAt,value
2018-12-02T00:00:54.883Z,95084.30
2018-12-02T00:15:51.522Z,95073.59
2018-12-02T00:30:51.448Z,95075.09
2018-12-02T00:45:52.678Z,95066.58
2018-12-02T01:00:51.740Z,95061.23
2018-12-02T01:15:52.564Z,95053.37
2018-12-02T01:30:52.569Z,95036.27
2018-12-02T01:45:51.385Z,95037.03
2018-12-02T02:00:50.781Z,95024.72
2018-12-02T02:15:50.887Z,95017.48
2018-12-02T02:30:51.876Z,94998.14
2018-12-02T02:45:51.570Z,95016.56
2018-12-02T03:00:51.011Z,95019.52
2018-12-02T03:15:50.930Z,95015.39
2018-12-02T03:30:52.819Z,95022.11
2018-12-02T03:45:51.715Z,95020.69
2018-12-02T04:00:51.131Z,95045.05
2018-12-02T04:15:51.020Z,95025.66
2018-12-02T04:30:51.083Z,95023.12
2018-12-02T04:45:52.836Z,95036.05
2018-12-02T05:00:50.761Z,95018.95
2018-12-02T05:15:51.240Z,95038.82
2018-12-02T05:30:51.150Z,95038.13
2018-12-02T05:45:51.016Z,95033.63
2018-12-02T06:00:51.870Z,95041.09
2018-12-02T06:15:50.874Z,95059.35
2018-12-02T06:30:50.755Z,95067.98
2018-12-02T06:45:50.170Z,95071.95
2018-12-02T07:15:50.469Z,95076.95
2018-12-02T07:30:50.455Z,95083.67
2018-12-02T07:45:50.838Z,95083.45
2018-12-02T08:00:50.687Z,95087.05
2018-12-02T08:15:50.535Z,95088.31
2018-12-02T08:30:50.205Z,95087.30
2018-12-02T08:45:50.962Z,95083.23
2018-12-02T09:00:50.834Z,95072.97
2018-12-02T09:15:50.814Z,95063.58
2018-12-02T09:30:50.771Z,95049.18
2018-12-02T09:45:51.158Z,95021.91
2018-12-02T10:00:52.065Z,95030.86
2018-12-02T10:15:52.442Z,95017.02
2018-12-02T10:30:50.924Z,95007.06
2018-12-02T10:45:51.370Z,94975.16
2018-12-02T11:00:58.371Z,94968.93
2018-12-02T11:45:48.866Z,94941.77
2018-12-02T12:00:52.818Z,94922.20
2018-12-02T12:15:50.629Z,94909.81
2018-12-02T12:30:50.534Z,94891.98
2018-12-02T12:45:50.797Z,94876.28
2018-12-02T13:00:50.846Z,94877.77
2018-12-02T13:15:50.526Z,94882.14
2018-12-02T13:30:50.522Z,94878.64
2018-12-02T13:45:51.763Z,94880.56
2018-12-02T14:00:50.858Z,94888.91
2018-12-02T14:15:55.730Z,94878.06
2018-12-02T14:30:50.732Z,94872.19
2018-12-02T14:45:51.078Z,94869.48
2018-12-02T15:00:50.836Z,94871.73
2018-12-02T15:15:51.181Z,94871.87
2018-12-02T15:30:50.907Z,94879.05
2018-12-02T15:45:53.285Z,94888.73
2018-12-02T16:00:51.275Z,94881.64
2018-12-02T16:15:54.506Z,94886.31
2018-12-02T16:30:53.998Z,94892.24
2018-12-02T16:45:50.015Z,94903.23
2018-12-02T17:00:57.422Z,94921.52
2018-12-02T17:15:49.898Z,94925.60
2018-12-02T17:30:57.280Z,94925.69
2018-12-02T17:45:51.707Z,94927.47
2018-12-02T18:00:50.447Z,94928.89
2018-12-02T18:15:50.566Z,94903.08
2018-12-02T18:30:53.533Z,94899.23
2018-12-02T19:45:58.997Z,94879.67
2018-12-02T20:00:56.601Z,94888.13
2018-12-02T20:45:56.124Z,94901.58
2018-12-02T21:00:53.439Z,94900.39
2018-12-02T21:15:51.341Z,94901.39
2018-12-02T21:30:51.396Z,94905.42
2018-12-02T21:45:50.614Z,94902.37
2018-12-02T22:00:55.540Z,94897.55
2018-12-02T22:15:56.634Z,94894.05
2018-12-02T22:30:53.514Z,94890.02
2018-12-02T22:45:52.785Z,94885.56
2018-12-02T23:00:55.958Z,94887.02
2018-12-02T23:15:53.773Z,94877.91
2018-12-02T23:30:52.156Z,94861.79
2018-12-02T23:45:52.949Z,94856.77
